sensor_id;sensor_type;location;lat;lon;timestamp;temperature;humidity
38514;DHT22;24282;48.400;10.808;2024-01-16T00:01:46;-3275.50;73.60
38514;DHT22;24282;48.400;10.808;2024-01-16T00:04:12;-3275.60;73.70
38514;DHT22;24282;48.400;10.808;2024-01-16T00:06:41;-3275.60;73.00
38514;DHT22;24282;48.400;10.808;2024-01-16T00:09:07;-3275.60;73.20
38514;DHT22;24282;48.400;10.808;2024-01-16T00:11:34;-3275.60;73.10
38514;DHT22;24282;48.400;10.808;2024-01-16T00:14:04;-3275.50;73.30
38514;DHT22;24282;48.400;10.808;2024-01-16T00:16:30;-3275.50;73.60
38514;DHT22;24282;48.400;10.808;2024-01-16T00:18:56;-3275.50;73.50
38514;DHT22;24282;48.400;10.808;2024-01-16T00:21:21;-3275.60;72.80
38514;DHT22;24282;48.400;10.808;2024-01-16T00:23:47;-3275.60;72.70
38514;DHT22;24282;48.400;10.808;2024-01-16T00:26:23;-3275.60;73.00
38514;DHT22;24282;48.400;10.808;2024-01-16T00:28:48;-3275.70;72.60
38514;DHT22;24282;48.400;10.808;2024-01-16T00:31:14;-3275.70;72.40
38514;DHT22;24282;48.400;10.808;2024-01-16T00:33:40;-3275.70;71.60
38514;DHT22;24282;48.400;10.808;2024-01-16T00:36:06;-3275.60;72.30
38514;DHT22;24282;48.400;10.808;2024-01-16T00:38:35;-3275.60;72.30
38514;DHT22;24282;48.400;10.808;2024-01-16T00:41:00;-3275.60;72.50
38514;DHT22;24282;48.400;10.808;2024-01-16T00:43:26;-3275.60;72.20
38514;DHT22;24282;48.400;10.808;2024-01-16T00:45:52;-3275.60;72.30
38514;DHT22;24282;48.400;10.808;2024-01-16T00:48:18;-3275.60;71.90
38514;DHT22;24282;48.400;10.808;2024-01-16T00:50:46;-3275.60;72.00
38514;DHT22;24282;48.400;10.808;2024-01-16T00:53:12;-3275.60;72.10
38514;DHT22;24282;48.400;10.808;2024-01-16T00:55:37;-3275.60;72.00
38514;DHT22;24282;48.400;10.808;2024-01-16T00:58:03;-3275.60;72.30
38514;DHT22;24282;48.400;10.808;2024-01-16T01:00:29;-3275.50;72.40
38514;DHT22;24282;48.400;10.808;2024-01-16T01:02:57;-3275.50;72.70
38514;DHT22;24282;48.400;10.808;2024-01-16T01:05:24;-3275.50;72.30
38514;DHT22;24282;48.400;10.808;2024-01-16T01:07:55;-3275.50;71.80
38514;DHT22;24282;48.400;10.808;2024-01-16T01:10:21;-3275.60;71.80
38514;DHT22;24282;48.400;10.808;2024-01-16T01:12:46;-3275.60;71.70
38514;DHT22;24282;48.400;10.808;2024-01-16T01:15:12;-3275.60;71.80
38514;DHT22;24282;48.400;10.808;2024-01-16T01:17:39;-3275.60;71.40
38514;DHT22;24282;48.400;10.808;2024-01-16T01:20:06;-3275.60;71.30
38514;DHT22;24282;48.400;10.808;2024-01-16T01:22:32;-3275.50;71.60
38514;DHT22;24282;48.400;10.808;2024-01-16T01:24:58;-3275.50;71.20
38514;DHT22;24282;48.400;10.808;2024-01-16T01:27:23;-3275.50;71.80
38514;DHT22;24282;48.400;10.808;2024-01-16T01:29:49;-3275.50;71.60
38514;DHT22;24282;48.400;10.808;2024-01-16T01:32:15;-3275.50;71.40
38514;DHT22;24282;48.400;10.808;2024-01-16T01:34:44;-3275.50;71.10
38514;DHT22;24282;48.400;10.808;2024-01-16T01:37:09;-3275.50;71.20
38514;DHT22;24282;48.400;10.808;2024-01-16T01:39:35;-3275.40;71.80
38514;DHT22;24282;48.400;10.808;2024-01-16T01:42:01;-3275.40;72.00
38514;DHT22;24282;48.400;10.808;2024-01-16T01:44:26;-3275.40;72.00
38514;DHT22;24282;48.400;10.808;2024-01-16T01:46:54;-3275.40;71.70
38514;DHT22;24282;48.400;10.808;2024-01-16T01:49:20;-3275.30;72.20
38514;DHT22;24282;48.400;10.808;2024-01-16T01:51:47;-3275.20;72.40
38514;DHT22;24282;48.400;10.808;2024-01-16T01:54:14;-3275.20;72.60
38514;DHT22;24282;48.400;10.808;2024-01-16T01:56:44;-3275.10;72.40
38514;DHT22;24282;48.400;10.808;2024-01-16T01:59:10;-3275.10;72.40
38514;DHT22;24282;48.400;10.808;2024-01-16T02:01:36;-3275.10;72.50
38514;DHT22;24282;48.400;10.808;2024-01-16T02:04:04;-3275.00;72.50
38514;DHT22;24282;48.400;10.808;2024-01-16T02:06:31;-3275.00;72.30
38514;DHT22;24282;48.400;10.808;2024-01-16T02:08:58;-3275.10;71.90
38514;DHT22;24282;48.400;10.808;2024-01-16T02:11:24;-3275.10;72.00
38514;DHT22;24282;48.400;10.808;2024-01-16T02:13:50;-3275.00;71.80
38514;DHT22;24282;48.400;10.808;2024-01-16T02:18:45;-3275.00;71.60
38514;DHT22;24282;48.400;10.808;2024-01-16T02:21:12;-3275.00;71.40
38514;DHT22;24282;48.400;10.808;2024-01-16T02:23:42;-3275.00;71.50
38514;DHT22;24282;48.400;10.808;2024-01-16T02:26:08;-3274.90;71.70
38514;DHT22;24282;48.400;10.808;2024-01-16T02:28:33;-3275.00;71.70
38514;DHT22;24282;48.400;10.808;2024-01-16T02:30:59;-3275.00;70.90
38514;DHT22;24282;48.400;10.808;2024-01-16T02:33:25;-3275.00;70.70
38514;DHT22;24282;48.400;10.808;2024-01-16T02:35:50;-3274.90;70.70
38514;DHT22;24282;48.400;10.808;2024-01-16T02:38:16;-3274.80;71.20
38514;DHT22;24282;48.400;10.808;2024-01-16T02:40:42;-3274.70;71.60
38514;DHT22;24282;48.400;10.808;2024-01-16T02:43:07;-3274.70;71.90
38514;DHT22;24282;48.400;10.808;2024-01-16T02:45:33;-3274.60;72.10
38514;DHT22;24282;48.400;10.808;2024-01-16T02:47:59;-3274.60;72.10
38514;DHT22;24282;48.400;10.808;2024-01-16T02:50:25;-3274.60;72.10
38514;DHT22;24282;48.400;10.808;2024-01-16T02:52:51;-3274.50;72.20
38514;DHT22;24282;48.400;10.808;2024-01-16T02:55:17;-3274.50;72.20
38514;DHT22;24282;48.400;10.808;2024-01-16T02:57:42;-3274.50;71.60
38514;DHT22;24282;48.400;10.808;2024-01-16T03:00:08;-3274.40;70.80
38514;DHT22;24282;48.400;10.808;2024-01-16T03:02:34;-3274.40;70.40
38514;DHT22;24282;48.400;10.808;2024-01-16T03:05:01;-3274.30;70.30
38514;DHT22;24282;48.400;10.808;2024-01-16T03:07:27;-3274.30;70.30
38514;DHT22;24282;48.400;10.808;2024-01-16T03:09:53;-3274.30;70.30
38514;DHT22;24282;48.400;10.808;2024-01-16T03:12:18;-3274.20;70.30
38514;DHT22;24282;48.400;10.808;2024-01-16T03:14:44;-3274.20;70.50
38514;DHT22;24282;48.400;10.808;2024-01-16T03:17:10;-3274.20;70.30
38514;DHT22;24282;48.400;10.808;2024-01-16T03:19:36;-3274.10;70.40
38514;DHT22;24282;48.400;10.808;2024-01-16T03:22:02;-3274.00;70.50
38514;DHT22;24282;48.400;10.808;2024-01-16T03:24:29;-3273.90;70.80
38514;DHT22;24282;48.400;10.808;2024-01-16T03:26:54;-3273.90;71.00
38514;DHT22;24282;48.400;10.808;2024-01-16T03:29:20;-3273.90;71.20
38514;DHT22;24282;48.400;10.808;2024-01-16T03:31:46;-3273.80;71.40
38514;DHT22;24282;48.400;10.808;2024-01-16T03:34:12;-3273.70;71.50
38514;DHT22;24282;48.400;10.808;2024-01-16T03:36:37;-3273.70;71.60
38514;DHT22;24282;48.400;10.808;2024-01-16T03:39:03;-3273.70;71.70
38514;DHT22;24282;48.400;10.808;2024-01-16T03:41:29;-3273.70;71.60
38514;DHT22;24282;48.400;10.808;2024-01-16T03:43:54;-3273.70;71.50
38514;DHT22;24282;48.400;10.808;2024-01-16T03:46:22;-3273.70;71.60
38514;DHT22;24282;48.400;10.808;2024-01-16T03:48:48;-3273.60;71.80
38514;DHT22;24282;48.400;10.808;2024-01-16T03:51:14;-3273.50;72.30
38514;DHT22;24282;48.400;10.808;2024-01-16T03:53:45;-3273.60;72.60
38514;DHT22;24282;48.400;10.808;2024-01-16T03:56:11;-3273.50;72.80
38514;DHT22;24282;48.400;10.808;2024-01-16T03:58:37;-3273.60;72.70
38514;DHT22;24282;48.400;10.808;2024-01-16T04:01:03;-3273.80;72.00
38514;DHT22;24282;48.400;10.808;2024-01-16T04:03:29;-3273.90;70.90
38514;DHT22;24282;48.400;10.808;2024-01-16T04:05:55;-3274.00;70.90
38514;DHT22;24282;48.400;10.808;2024-01-16T04:08:20;-3273.90;70.80
38514;DHT22;24282;48.400;10.808;2024-01-16T04:10:46;-3273.80;71.20
38514;DHT22;24282;48.400;10.808;2024-01-16T04:13:12;-3273.70;71.40
38514;DHT22;24282;48.400;10.808;2024-01-16T04:15:38;-3273.60;71.70
38514;DHT22;24282;48.400;10.808;2024-01-16T04:18:04;-3273.50;72.00
38514;DHT22;24282;48.400;10.808;2024-01-16T04:20:30;-3273.40;72.50
38514;DHT22;24282;48.400;10.808;2024-01-16T04:22:56;-3273.40;72.90
38514;DHT22;24282;48.400;10.808;2024-01-16T04:25:23;-3273.40;73.20
38514;DHT22;24282;48.400;10.808;2024-01-16T04:27:49;-3273.40;73.30
38514;DHT22;24282;48.400;10.808;2024-01-16T04:30:15;-3273.30;73.40
38514;DHT22;24282;48.400;10.808;2024-01-16T04:32:40;-3273.30;73.20
38514;DHT22;24282;48.400;10.808;2024-01-16T04:35:06;-3273.30;72.30
38514;DHT22;24282;48.400;10.808;2024-01-16T04:37:32;-3273.30;71.80
38514;DHT22;24282;48.400;10.808;2024-01-16T04:39:58;-3273.30;71.50
38514;DHT22;24282;48.400;10.808;2024-01-16T04:42:25;-3273.20;71.50
38514;DHT22;24282;48.400;10.808;2024-01-16T04:44:51;-3273.10;71.30
38514;DHT22;24282;48.400;10.808;2024-01-16T04:47:16;-3273.00;71.50
38514;DHT22;24282;48.400;10.808;2024-01-16T04:49:44;-3272.90;71.70
38514;DHT22;24282;48.400;10.808;2024-01-16T04:52:10;-3272.90;72.00
38514;DHT22;24282;48.400;10.808;2024-01-16T04:54:35;-3272.90;72.30
38514;DHT22;24282;48.400;10.808;2024-01-16T04:57:01;-3273.00;72.50
38514;DHT22;24282;48.400;10.808;2024-01-16T04:59:27;-3273.10;72.20
38514;DHT22;24282;48.400;10.808;2024-01-16T05:01:53;-3273.20;72.00
38514;DHT22;24282;48.400;10.808;2024-01-16T05:04:19;-3273.20;72.20
38514;DHT22;24282;48.400;10.808;2024-01-16T05:06:49;-3273.20;72.40
38514;DHT22;24282;48.400;10.808;2024-01-16T05:09:14;-3273.20;72.30
38514;DHT22;24282;48.400;10.808;2024-01-16T05:11:40;-3273.30;72.30
38514;DHT22;24282;48.400;10.808;2024-01-16T05:14:06;-3273.20;72.50
38514;DHT22;24282;48.400;10.808;2024-01-16T05:16:31;-3273.20;72.50
38514;DHT22;24282;48.400;10.808;2024-01-16T05:18:57;-3273.10;72.70
38514;DHT22;24282;48.400;10.808;2024-01-16T05:21:23;-3273.00;73.00
38514;DHT22;24282;48.400;10.808;2024-01-16T05:23:48;-3273.00;73.30
38514;DHT22;24282;48.400;10.808;2024-01-16T05:26:14;-3273.00;73.40
38514;DHT22;24282;48.400;10.808;2024-01-16T05:28:40;-3272.90;73.20
38514;DHT22;24282;48.400;10.808;2024-01-16T05:31:06;-3272.90;72.50
38514;DHT22;24282;48.400;10.808;2024-01-16T05:33:32;-3272.90;71.90
38514;DHT22;24282;48.400;10.808;2024-01-16T05:35:58;-3272.80;71.50
38514;DHT22;24282;48.400;10.808;2024-01-16T05:38:24;-3272.80;71.50
38514;DHT22;24282;48.400;10.808;2024-01-16T05:40:49;-3272.70;71.80
38514;DHT22;24282;48.400;10.808;2024-01-16T05:43:15;-3272.70;72.00
38514;DHT22;24282;48.400;10.808;2024-01-16T05:45:41;-3272.50;72.30
38514;DHT22;24282;48.400;10.808;2024-01-16T05:48:07;-3272.50;72.40
38514;DHT22;24282;48.400;10.808;2024-01-16T05:50:35;-3272.50;72.70
38514;DHT22;24282;48.400;10.808;2024-01-16T05:53:01;-3272.40;73.10
38514;DHT22;24282;48.400;10.808;2024-01-16T05:55:28;-3272.40;73.30
38514;DHT22;24282;48.400;10.808;2024-01-16T05:57:54;-3272.40;73.70
38514;DHT22;24282;48.400;10.808;2024-01-16T06:00:20;-3272.40;74.10
38514;DHT22;24282;48.400;10.808;2024-01-16T06:02:48;-3272.40;74.30
38514;DHT22;24282;48.400;10.808;2024-01-16T06:05:14;-3272.40;74.40
38514;DHT22;24282;48.400;10.808;2024-01-16T06:07:40;-3272.50;74.30
38514;DHT22;24282;48.400;10.808;2024-01-16T06:10:06;-3272.40;74.40
38514;DHT22;24282;48.400;10.808;2024-01-16T06:12:32;-3272.50;74.30
38514;DHT22;24282;48.400;10.808;2024-01-16T06:14:58;-3272.50;74.20
38514;DHT22;24282;48.400;10.808;2024-01-16T06:17:24;-3272.50;74.20
38514;DHT22;24282;48.400;10.808;2024-01-16T06:19:49;-3272.50;74.20
38514;DHT22;24282;48.400;10.808;2024-01-16T06:22:15;-3272.50;74.40
38514;DHT22;24282;48.400;10.808;2024-01-16T06:24:41;-3272.50;74.40
38514;DHT22;24282;48.400;10.808;2024-01-16T06:27:06;-3272.50;74.30
38514;DHT22;24282;48.400;10.808;2024-01-16T06:29:32;-3272.50;74.30
38514;DHT22;24282;48.400;10.808;2024-01-16T06:31:59;-3272.50;74.30
38514;DHT22;24282;48.400;10.808;2024-01-16T06:34:27;-3272.40;74.20
38514;DHT22;24282;48.400;10.808;2024-01-16T06:36:52;-3272.40;74.40
38514;DHT22;24282;48.400;10.808;2024-01-16T06:39:18;-3272.40;74.40
38514;DHT22;24282;48.400;10.808;2024-01-16T06:41:44;-3272.40;74.60
38514;DHT22;24282;48.400;10.808;2024-01-16T06:44:09;-3272.40;74.80
38514;DHT22;24282;48.400;10.808;2024-01-16T06:46:35;-3272.40;74.70
38514;DHT22;24282;48.400;10.808;2024-01-16T06:49:01;-3272.30;74.80
38514;DHT22;24282;48.400;10.808;2024-01-16T06:51:27;-3272.30;74.90
38514;DHT22;24282;48.400;10.808;2024-01-16T06:53:53;-3272.30;74.90
38514;DHT22;24282;48.400;10.808;2024-01-16T06:56:19;-3272.40;74.80
38514;DHT22;24282;48.400;10.808;2024-01-16T06:58:44;-3272.40;74.90
38514;DHT22;24282;48.400;10.808;2024-01-16T07:01:10;-3272.40;74.90
38514;DHT22;24282;48.400;10.808;2024-01-16T07:03:36;-3272.40;74.90
38514;DHT22;24282;48.400;10.808;2024-01-16T07:06:03;-3272.40;74.90
38514;DHT22;24282;48.400;10.808;2024-01-16T07:08:28;-3272.40;75.30
38514;DHT22;24282;48.400;10.808;2024-01-16T07:10:54;-3272.40;75.40
38514;DHT22;24282;48.400;10.808;2024-01-16T07:13:20;-3272.40;75.50
38514;DHT22;24282;48.400;10.808;2024-01-16T07:15:46;-3272.40;75.50
38514;DHT22;24282;48.400;10.808;2024-01-16T07:18:12;-3272.50;75.80
38514;DHT22;24282;48.400;10.808;2024-01-16T07:20:37;-3272.50;75.90
38514;DHT22;24282;48.400;10.808;2024-01-16T07:23:04;-3272.50;76.00
38514;DHT22;24282;48.400;10.808;2024-01-16T07:25:30;-3272.50;75.90
38514;DHT22;24282;48.400;10.808;2024-01-16T07:27:56;-3272.60;75.40
38514;DHT22;24282;48.400;10.808;2024-01-16T07:30:22;-3272.60;75.20
38514;DHT22;24282;48.400;10.808;2024-01-16T07:32:47;-3272.60;75.10
38514;DHT22;24282;48.400;10.808;2024-01-16T07:35:14;-3272.60;75.00
38514;DHT22;24282;48.400;10.808;2024-01-16T07:37:39;-3272.60;75.10
38514;DHT22;24282;48.400;10.808;2024-01-16T07:40:05;-3272.60;75.30
38514;DHT22;24282;48.400;10.808;2024-01-16T07:42:32;-3272.60;75.70
38514;DHT22;24282;48.400;10.808;2024-01-16T07:45:00;-3272.60;75.80
38514;DHT22;24282;48.400;10.808;2024-01-16T07:47:26;-3272.70;75.90
38514;DHT22;24282;48.400;10.808;2024-01-16T07:49:52;-3272.70;75.80
38514;DHT22;24282;48.400;10.808;2024-01-16T07:52:17;-3272.70;75.50
38514;DHT22;24282;48.400;10.808;2024-01-16T07:54:43;-3272.70;75.30
38514;DHT22;24282;48.400;10.808;2024-01-16T07:57:09;-3272.80;75.40
38514;DHT22;24282;48.400;10.808;2024-01-16T07:59:34;-3272.70;75.20
38514;DHT22;24282;48.400;10.808;2024-01-16T08:02:00;-3272.80;75.10
38514;DHT22;24282;48.400;10.808;2024-01-16T08:04:26;-3272.80;74.90
38514;DHT22;24282;48.400;10.808;2024-01-16T08:06:52;-3272.90;74.90
38514;DHT22;24282;48.400;10.808;2024-01-16T08:09:18;-3272.90;75.00
38514;DHT22;24282;48.400;10.808;2024-01-16T08:11:44;-3272.90;75.10
38514;DHT22;24282;48.400;10.808;2024-01-16T08:14:10;-3273.00;75.00
38514;DHT22;24282;48.400;10.808;2024-01-16T08:16:36;-3273.00;74.90
38514;DHT22;24282;48.400;10.808;2024-01-16T08:19:02;-3273.00;75.10
38514;DHT22;24282;48.400;10.808;2024-01-16T08:21:28;-3273.10;75.00
38514;DHT22;24282;48.400;10.808;2024-01-16T08:23:54;-3273.10;74.60
38514;DHT22;24282;48.400;10.808;2024-01-16T08:26:20;-3273.20;74.50
38514;DHT22;24282;48.400;10.808;2024-01-16T08:28:46;-3273.30;74.90
38514;DHT22;24282;48.400;10.808;2024-01-16T08:31:12;-3273.30;74.70
38514;DHT22;24282;48.400;10.808;2024-01-16T08:33:37;-3273.40;74.70
38514;DHT22;24282;48.400;10.808;2024-01-16T08:36:04;-3273.40;74.40
38514;DHT22;24282;48.400;10.808;2024-01-16T08:38:32;-3273.50;74.40
38514;DHT22;24282;48.400;10.808;2024-01-16T08:40:58;-3273.50;74.40
38514;DHT22;24282;48.400;10.808;2024-01-16T08:43:24;-3273.50;74.40
38514;DHT22;24282;48.400;10.808;2024-01-16T08:45:49;-3273.60;74.40
38514;DHT22;24282;48.400;10.808;2024-01-16T08:48:16;-3273.70;74.50
38514;DHT22;24282;48.400;10.808;2024-01-16T08:50:42;-3273.70;74.40
38514;DHT22;24282;48.400;10.808;2024-01-16T08:53:08;-3273.70;74.40
38514;DHT22;24282;48.400;10.808;2024-01-16T08:55:33;-3273.90;74.50
38514;DHT22;24282;48.400;10.808;2024-01-16T08:57:59;-3273.90;74.40
38514;DHT22;24282;48.400;10.808;2024-01-16T09:00:25;-3274.00;74.20
38514;DHT22;24282;48.400;10.808;2024-01-16T09:02:50;-3274.00;74.20
38514;DHT22;24282;48.400;10.808;2024-01-16T09:05:16;-3274.10;74.00
38514;DHT22;24282;48.400;10.808;2024-01-16T09:07:42;-3274.20;73.90
38514;DHT22;24282;48.400;10.808;2024-01-16T09:10:08;-3274.20;73.50
38514;DHT22;24282;48.400;10.808;2024-01-16T09:12:34;-3274.30;73.30
38514;DHT22;24282;48.400;10.808;2024-01-16T09:15:00;-3274.40;73.60
38514;DHT22;24282;48.400;10.808;2024-01-16T09:17:25;-3274.40;73.70
38514;DHT22;24282;48.400;10.808;2024-01-16T09:19:51;-3274.40;73.50
38514;DHT22;24282;48.400;10.808;2024-01-16T09:22:17;-3274.40;73.30
38514;DHT22;24282;48.400;10.808;2024-01-16T09:24:43;-3274.50;73.20
38514;DHT22;24282;48.400;10.808;2024-01-16T09:27:09;-3274.50;73.20
38514;DHT22;24282;48.400;10.808;2024-01-16T09:29:36;-3274.60;73.10
38514;DHT22;24282;48.400;10.808;2024-01-16T09:32:02;-3274.60;73.00
38514;DHT22;24282;48.400;10.808;2024-01-16T09:34:28;-3274.60;73.00
38514;DHT22;24282;48.400;10.808;2024-01-16T09:36:54;-3274.70;72.70
38514;DHT22;24282;48.400;10.808;2024-01-16T09:39:24;-3274.70;72.40
38514;DHT22;24282;48.400;10.808;2024-01-16T09:41:50;-3274.70;72.50
38514;DHT22;24282;48.400;10.808;2024-01-16T09:44:16;-3274.80;72.40
38514;DHT22;24282;48.400;10.808;2024-01-16T09:46:44;-3274.80;72.30
38514;DHT22;24282;48.400;10.808;2024-01-16T09:49:12;-3274.90;72.10
38514;DHT22;24282;48.400;10.808;2024-01-16T09:51:40;-3274.90;72.10
38514;DHT22;24282;48.400;10.808;2024-01-16T09:54:06;-3274.90;72.10
38514;DHT22;24282;48.400;10.808;2024-01-16T09:56:35;-3275.00;71.90
38514;DHT22;24282;48.400;10.808;2024-01-16T09:59:05;-3275.00;71.90
38514;DHT22;24282;48.400;10.808;2024-01-16T10:01:32;-3275.00;72.20
38514;DHT22;24282;48.400;10.808;2024-01-16T10:03:59;-3275.20;72.20
38514;DHT22;24282;48.400;10.808;2024-01-16T10:06:27;-3275.20;71.70
38514;DHT22;24282;48.400;10.808;2024-01-16T10:08:53;-3275.20;71.60
38514;DHT22;24282;48.400;10.808;2024-01-16T10:11:18;-3275.30;71.50
38514;DHT22;24282;48.400;10.808;2024-01-16T10:13:45;-3275.30;71.20
38514;DHT22;24282;48.400;10.808;2024-01-16T10:16:10;-3275.40;71.00
38514;DHT22;24282;48.400;10.808;2024-01-16T10:18:36;-3275.40;71.20
38514;DHT22;24282;48.400;10.808;2024-01-16T10:21:04;-3275.40;71.10
38514;DHT22;24282;48.400;10.808;2024-01-16T10:23:31;-3275.50;70.60
38514;DHT22;24282;48.400;10.808;2024-01-16T10:26:07;-3275.50;70.20
38514;DHT22;24282;48.400;10.808;2024-01-16T10:28:34;-3275.50;70.10
38514;DHT22;24282;48.400;10.808;2024-01-16T10:31:08;-3275.60;69.80
38514;DHT22;24282;48.400;10.808;2024-01-16T10:33:34;-3275.70;69.30
38514;DHT22;24282;48.400;10.808;2024-01-16T10:36:17;-3275.70;69.40
38514;DHT22;24282;48.400;10.808;2024-01-16T10:38:45;-3275.80;69.30
38514;DHT22;24282;48.400;10.808;2024-01-16T10:41:16;-3275.80;68.90
38514;DHT22;24282;48.400;10.808;2024-01-16T10:44:06;-3275.90;69.10
38514;DHT22;24282;48.400;10.808;2024-01-16T10:46:36;-3276.00;68.90
38514;DHT22;24282;48.400;10.808;2024-01-16T10:49:05;-3276.00;68.70
38514;DHT22;24282;48.400;10.808;2024-01-16T10:51:32;-3276.10;68.80
38514;DHT22;24282;48.400;10.808;2024-01-16T10:54:03;-3276.20;68.80
38514;DHT22;24282;48.400;10.808;2024-01-16T10:56:31;-3276.20;68.40
38514;DHT22;24282;48.400;10.808;2024-01-16T10:59:19;-3276.20;68.30
38514;DHT22;24282;48.400;10.808;2024-01-16T11:01:50;-3276.30;68.60
38514;DHT22;24282;48.400;10.808;2024-01-16T11:04:18;-3276.30;68.10
38514;DHT22;24282;48.400;10.808;2024-01-16T11:06:55;-3276.30;68.20
38514;DHT22;24282;48.400;10.808;2024-01-16T11:09:21;-3276.30;68.40
38514;DHT22;24282;48.400;10.808;2024-01-16T11:11:47;-3276.30;68.60
38514;DHT22;24282;48.400;10.808;2024-01-16T11:14:15;-3276.30;68.80
38514;DHT22;24282;48.400;10.808;2024-01-16T11:16:42;-3276.30;68.70
38514;DHT22;24282;48.400;10.808;2024-01-16T11:19:09;-3276.30;68.80
38514;DHT22;24282;48.400;10.808;2024-01-16T11:21:36;-3276.40;69.00
38514;DHT22;24282;48.400;10.808;2024-01-16T11:24:03;-3276.40;69.30
38514;DHT22;24282;48.400;10.808;2024-01-16T11:26:30;-3276.40;69.60
38514;DHT22;24282;48.400;10.808;2024-01-16T11:31:54;-3276.50;69.30
38514;DHT22;24282;48.400;10.808;2024-01-16T11:37:08;-3276.50;69.00
38514;DHT22;24282;48.400;10.808;2024-01-16T11:39:35;-3276.60;68.50
38514;DHT22;24282;48.400;10.808;2024-01-16T11:42:01;-3276.60;68.30
38514;DHT22;24282;48.400;10.808;2024-01-16T11:47:07;-3276.70;68.30
38514;DHT22;24282;48.400;10.808;2024-01-16T11:49:37;-3276.70;68.00
38514;DHT22;24282;48.400;10.808;2024-01-16T11:52:03;0.00;67.90
38514;DHT22;24282;48.400;10.808;2024-01-16T11:54:29;0.00;68.00
38514;DHT22;24282;48.400;10.808;2024-01-16T11:57:05;0.00;67.00
38514;DHT22;24282;48.400;10.808;2024-01-16T12:02:46;0.10;66.50
38514;DHT22;24282;48.400;10.808;2024-01-16T12:05:14;0.20;66.50
38514;DHT22;24282;48.400;10.808;2024-01-16T12:07:50;0.20;66.00
38514;DHT22;24282;48.400;10.808;2024-01-16T12:10:20;0.20;65.90
38514;DHT22;24282;48.400;10.808;2024-01-16T12:12:47;0.20;65.70
38514;DHT22;24282;48.400;10.808;2024-01-16T12:15:14;0.20;65.60
38514;DHT22;24282;48.400;10.808;2024-01-16T12:18:03;0.20;65.40
38514;DHT22;24282;48.400;10.808;2024-01-16T12:20:34;0.20;65.30
38514;DHT22;24282;48.400;10.808;2024-01-16T12:23:04;0.20;65.50
38514;DHT22;24282;48.400;10.808;2024-01-16T12:25:34;0.20;65.70
38514;DHT22;24282;48.400;10.808;2024-01-16T12:30:36;0.30;65.50
38514;DHT22;24282;48.400;10.808;2024-01-16T12:33:03;0.40;65.50
38514;DHT22;24282;48.400;10.808;2024-01-16T12:35:31;0.40;65.50
38514;DHT22;24282;48.400;10.808;2024-01-16T12:37:58;0.50;65.80
38514;DHT22;24282;48.400;10.808;2024-01-16T12:40:25;0.50;66.00
38514;DHT22;24282;48.400;10.808;2024-01-16T12:42:51;0.50;66.00
38514;DHT22;24282;48.400;10.808;2024-01-16T12:45:17;0.60;65.20
38514;DHT22;24282;48.400;10.808;2024-01-16T12:47:43;0.60;64.90
38514;DHT22;24282;48.400;10.808;2024-01-16T12:50:10;0.60;64.80
38514;DHT22;24282;48.400;10.808;2024-01-16T12:52:36;0.60;65.50
38514;DHT22;24282;48.400;10.808;2024-01-16T12:55:02;0.60;66.00
38514;DHT22;24282;48.400;10.808;2024-01-16T12:57:30;0.60;66.00
38514;DHT22;24282;48.400;10.808;2024-01-16T12:59:55;0.60;65.70
38514;DHT22;24282;48.400;10.808;2024-01-16T13:02:26;0.60;65.20
38514;DHT22;24282;48.400;10.808;2024-01-16T13:04:59;0.50;64.70
38514;DHT22;24282;48.400;10.808;2024-01-16T13:07:26;0.50;64.90
38514;DHT22;24282;48.400;10.808;2024-01-16T13:10:06;0.50;65.10
38514;DHT22;24282;48.400;10.808;2024-01-16T13:12:32;0.50;65.30
38514;DHT22;24282;48.400;10.808;2024-01-16T13:14:59;0.50;65.50
38514;DHT22;24282;48.400;10.808;2024-01-16T13:17:24;0.60;65.50
38514;DHT22;24282;48.400;10.808;2024-01-16T13:19:50;0.60;65.60
38514;DHT22;24282;48.400;10.808;2024-01-16T13:22:16;0.60;65.70
38514;DHT22;24282;48.400;10.808;2024-01-16T13:24:42;0.60;65.80
38514;DHT22;24282;48.400;10.808;2024-01-16T13:27:08;0.70;65.90
38514;DHT22;24282;48.400;10.808;2024-01-16T13:29:35;0.70;65.80
38514;DHT22;24282;48.400;10.808;2024-01-16T13:32:04;0.70;65.30
38514;DHT22;24282;48.400;10.808;2024-01-16T13:34:30;0.80;65.20
38514;DHT22;24282;48.400;10.808;2024-01-16T13:36:58;0.80;65.80
38514;DHT22;24282;48.400;10.808;2024-01-16T13:39:26;0.80;66.00
38514;DHT22;24282;48.400;10.808;2024-01-16T13:41:53;0.80;64.80
38514;DHT22;24282;48.400;10.808;2024-01-16T13:44:19;0.70;65.20
38514;DHT22;24282;48.400;10.808;2024-01-16T13:46:44;0.70;65.30
38514;DHT22;24282;48.400;10.808;2024-01-16T13:49:10;0.70;65.70
38514;DHT22;24282;48.400;10.808;2024-01-16T13:51:36;0.70;66.00
38514;DHT22;24282;48.400;10.808;2024-01-16T13:54:02;0.70;66.60
38514;DHT22;24282;48.400;10.808;2024-01-16T13:56:27;0.70;66.00
38514;DHT22;24282;48.400;10.808;2024-01-16T13:58:53;0.70;65.80
38514;DHT22;24282;48.400;10.808;2024-01-16T14:01:19;0.60;66.00
38514;DHT22;24282;48.400;10.808;2024-01-16T14:03:45;0.60;66.10
38514;DHT22;24282;48.400;10.808;2024-01-16T14:06:13;0.60;66.40
38514;DHT22;24282;48.400;10.808;2024-01-16T14:08:41;0.60;66.80
38514;DHT22;24282;48.400;10.808;2024-01-16T14:11:06;0.60;67.00
38514;DHT22;24282;48.400;10.808;2024-01-16T14:13:32;0.60;67.50
38514;DHT22;24282;48.400;10.808;2024-01-16T14:15:58;0.60;68.00
38514;DHT22;24282;48.400;10.808;2024-01-16T14:18:23;0.60;68.50
38514;DHT22;24282;48.400;10.808;2024-01-16T14:20:49;0.60;68.20
38514;DHT22;24282;48.400;10.808;2024-01-16T14:23:15;0.60;68.40
38514;DHT22;24282;48.400;10.808;2024-01-16T14:25:40;0.50;68.40
38514;DHT22;24282;48.400;10.808;2024-01-16T14:28:06;0.50;68.10
38514;DHT22;24282;48.400;10.808;2024-01-16T14:30:33;0.50;68.20
38514;DHT22;24282;48.400;10.808;2024-01-16T14:32:59;0.50;68.10
38514;DHT22;24282;48.400;10.808;2024-01-16T14:35:25;0.50;67.70
38514;DHT22;24282;48.400;10.808;2024-01-16T14:37:51;0.50;67.60
38514;DHT22;24282;48.400;10.808;2024-01-16T14:40:17;0.50;67.80
38514;DHT22;24282;48.400;10.808;2024-01-16T14:42:46;0.50;68.30
38514;DHT22;24282;48.400;10.808;2024-01-16T14:45:22;0.50;68.20
38514;DHT22;24282;48.400;10.808;2024-01-16T14:47:48;0.40;67.60
38514;DHT22;24282;48.400;10.808;2024-01-16T14:50:16;0.40;67.60
38514;DHT22;24282;48.400;10.808;2024-01-16T14:52:46;0.30;67.10
38514;DHT22;24282;48.400;10.808;2024-01-16T14:55:12;0.30;67.30
38514;DHT22;24282;48.400;10.808;2024-01-16T14:57:38;0.30;67.70
38514;DHT22;24282;48.400;10.808;2024-01-16T15:00:18;0.30;67.90